createdAt,value
2023-03-31T00:01:09.802Z,90.78
2023-03-31T00:03:38.923Z,91.09
2023-03-31T00:06:08.563Z,91.77
2023-03-31T00:08:36.435Z,92.17
2023-03-31T00:11:07.225Z,91.62
2023-03-31T00:13:35.540Z,91.44
2023-03-31T00:16:06.004Z,91.15
2023-03-31T00:18:34.371Z,90.84
2023-03-31T00:21:09.632Z,91.34
2023-03-31T00:23:37.409Z,91.24
2023-03-31T00:26:05.370Z,91.79
2023-03-31T00:28:33.212Z,91.94
2023-03-31T00:31:02.663Z,90.88
2023-03-31T00:33:30.730Z,91.88
2023-03-31T00:36:01.901Z,91.42
2023-03-31T00:38:31.311Z,91.38
2023-03-31T00:40:59.395Z,92.05
2023-03-31T00:43:32.978Z,91.42
2023-03-31T00:46:17.913Z,90.91
2023-03-31T00:48:50.860Z,91.38
2023-03-31T00:51:20.095Z,91.07
2023-03-31T00:53:55.328Z,91.89
2023-03-31T00:56:23.693Z,91.94
2023-03-31T00:58:51.658Z,92.82
2023-03-31T01:01:24.752Z,92.26
2023-03-31T01:03:53.268Z,92.13
2023-03-31T01:06:21.049Z,91.59
2023-03-31T01:08:52.407Z,91.04
2023-03-31T01:11:25.321Z,90.59
2023-03-31T01:13:56.298Z,90.51
2023-03-31T01:16:24.572Z,90.57
2023-03-31T01:18:52.501Z,90.68
2023-03-31T01:21:47.182Z,90.47
2023-03-31T01:24:49.898Z,90.10
2023-03-31T01:27:37.265Z,90.22
2023-03-31T01:30:37.727Z,91.67
2023-03-31T01:33:38.072Z,91.33
2023-03-31T01:36:29.648Z,91.79
2023-03-31T01:39:28.419Z,91.62
2023-03-31T01:42:02.961Z,90.62
2023-03-31T01:44:41.732Z,90.63
2023-03-31T01:47:18.389Z,90.67
2023-03-31T01:49:56.807Z,90.72
2023-03-31T01:52:27.326Z,90.82
2023-03-31T01:55:03.126Z,90.89
2023-03-31T01:57:36.344Z,90.68
2023-03-31T02:00:08.758Z,91.29
2023-03-31T02:02:49.243Z,90.95
2023-03-31T02:05:20.855Z,90.95
2023-03-31T02:07:53.947Z,91.03
2023-03-31T02:10:23.857Z,90.86
2023-03-31T02:12:56.776Z,91.04
2023-03-31T02:15:28.063Z,90.90
2023-03-31T02:17:59.918Z,90.86
2023-03-31T02:20:32.428Z,91.09
2023-03-31T02:23:01.089Z,91.48
2023-03-31T02:25:36.615Z,92.03
2023-03-31T02:28:10.668Z,91.50
2023-03-31T02:30:46.661Z,91.49
2023-03-31T02:33:15.589Z,91.34
2023-03-31T02:35:43.605Z,91.38
2023-03-31T02:38:11.820Z,92.55
2023-03-31T02:40:39.428Z,93.48
2023-03-31T02:43:08.694Z,92.39
2023-03-31T02:45:47.468Z,93.25
2023-03-31T02:48:20.364Z,92.81
2023-03-31T02:51:24.618Z,92.39
2023-03-31T02:54:09.530Z,92.14
2023-03-31T02:57:13.041Z,91.96
2023-03-31T02:59:52.407Z,92.64
2023-03-31T03:02:30.165Z,92.74
2023-03-31T03:05:10.277Z,93.31
2023-03-31T03:07:47.912Z,94.55
2023-03-31T03:10:21.734Z,93.70
2023-03-31T03:12:58.785Z,93.26
2023-03-31T03:15:34.143Z,93.12
2023-03-31T03:18:03.059Z,92.84
2023-03-31T03:20:33.917Z,92.09
2023-03-31T03:23:01.792Z,92.03
2023-03-31T03:25:30.677Z,91.57
2023-03-31T03:27:58.364Z,91.89
2023-03-31T03:30:25.997Z,91.82
2023-03-31T03:32:56.210Z,91.68
2023-03-31T03:35:23.833Z,91.56
2023-03-31T03:37:51.636Z,91.78
2023-03-31T03:40:19.411Z,92.05
2023-03-31T03:42:47.018Z,91.58
2023-03-31T03:45:14.629Z,91.46
2023-03-31T03:47:42.234Z,91.40
2023-03-31T03:50:15.838Z,91.11
2023-03-31T03:52:44.017Z,91.74
2023-03-31T03:55:12.217Z,91.30
2023-03-31T03:57:39.883Z,90.97
2023-03-31T04:00:10.234Z,91.08
2023-03-31T04:02:39.731Z,91.68
2023-03-31T04:05:07.909Z,92.67
2023-03-31T04:07:37.115Z,92.07
2023-03-31T04:10:05.117Z,91.85
2023-03-31T04:12:35.169Z,92.21
2023-03-31T04:15:02.971Z,91.90
2023-03-31T04:17:34.649Z,91.86
2023-03-31T04:20:05.723Z,92.04
2023-03-31T04:22:35.271Z,91.31
2023-03-31T04:25:14.921Z,91.38
2023-03-31T04:27:46.587Z,91.49
2023-03-31T04:30:22.538Z,91.83
2023-03-31T04:32:51.601Z,92.67
2023-03-31T04:35:20.839Z,92.62
2023-03-31T04:37:49.434Z,92.24
2023-03-31T04:40:19.146Z,92.42
2023-03-31T04:42:46.829Z,92.39
2023-03-31T04:45:14.593Z,92.43
2023-03-31T04:47:42.381Z,92.80
2023-03-31T04:50:14.483Z,92.78
2023-03-31T04:52:43.859Z,92.60
2023-03-31T04:55:11.840Z,92.43
2023-03-31T04:57:42.026Z,91.94
2023-03-31T05:00:11.445Z,91.53
2023-03-31T05:02:39.095Z,91.88
2023-03-31T05:05:07.186Z,92.09
2023-03-31T05:07:34.768Z,91.85
2023-03-31T05:10:02.481Z,92.16
2023-03-31T05:12:30.148Z,91.53
2023-03-31T05:14:59.296Z,91.65
2023-03-31T05:17:26.872Z,91.05
2023-03-31T05:19:54.723Z,91.14
2023-03-31T05:22:22.302Z,90.95
2023-03-31T05:24:50.012Z,90.69
2023-03-31T05:27:17.754Z,91.17
2023-03-31T05:29:45.826Z,91.08
2023-03-31T05:32:14.747Z,91.36
2023-03-31T05:34:43.316Z,91.22
2023-03-31T05:37:10.910Z,90.93
2023-03-31T05:39:38.747Z,90.56
2023-03-31T05:42:07.596Z,90.65
2023-03-31T05:44:35.733Z,90.37
2023-03-31T05:47:03.383Z,90.38
2023-03-31T05:49:32.742Z,90.53
2023-03-31T05:52:00.357Z,90.41
2023-03-31T05:54:28.548Z,90.76
2023-03-31T05:56:56.139Z,90.62
2023-03-31T05:59:24.318Z,90.85
2023-03-31T06:01:51.996Z,91.18
2023-03-31T06:04:20.125Z,91.26
2023-03-31T06:06:50.234Z,91.88
2023-03-31T06:09:18.562Z,91.57
2023-03-31T06:11:48.266Z,91.60
2023-03-31T06:14:17.106Z,91.68
2023-03-31T06:16:44.763Z,91.84
2023-03-31T06:19:12.441Z,91.43
2023-03-31T06:21:40.125Z,91.71
2023-03-31T06:24:09.799Z,91.84
2023-03-31T06:26:37.521Z,91.46
2023-03-31T06:29:05.080Z,91.63
2023-03-31T06:31:32.985Z,91.75
2023-03-31T06:34:01.011Z,91.76
2023-03-31T06:36:29.225Z,91.45
2023-03-31T06:38:56.923Z,91.36
2023-03-31T06:41:26.590Z,91.95
2023-03-31T06:43:54.148Z,91.68
2023-03-31T06:46:22.246Z,91.31
2023-03-31T06:48:49.870Z,91.35
2023-03-31T06:51:18.088Z,91.55
2023-03-31T06:53:45.660Z,92.19
2023-03-31T06:56:13.339Z,93.12
2023-03-31T06:58:42.244Z,91.87
2023-03-31T07:01:11.469Z,91.82
2023-03-31T07:03:39.486Z,92.19
2023-03-31T07:06:07.545Z,92.09
2023-03-31T07:08:35.155Z,91.94
2023-03-31T07:11:03.822Z,92.01
2023-03-31T07:13:31.612Z,92.29
2023-03-31T07:16:00.885Z,92.10
2023-03-31T07:18:34.375Z,92.32
2023-03-31T07:21:02.728Z,92.27
2023-03-31T07:23:30.447Z,92.16
2023-03-31T07:26:02.505Z,92.08
2023-03-31T07:28:30.304Z,91.73
2023-03-31T07:30:58.248Z,91.30
2023-03-31T07:33:27.198Z,90.75
2023-03-31T07:36:10.146Z,90.73
2023-03-31T07:38:39.286Z,90.44
2023-03-31T07:41:10.796Z,90.12
2023-03-31T07:43:38.701Z,89.94
2023-03-31T07:46:08.342Z,89.32
2023-03-31T07:48:37.611Z,89.37
2023-03-31T07:51:05.554Z,89.48
2023-03-31T07:53:37.619Z,89.17
2023-03-31T07:56:05.593Z,88.41
2023-03-31T07:58:33.596Z,87.94
2023-03-31T08:01:01.954Z,87.70
2023-03-31T08:03:32.087Z,86.87
2023-03-31T08:06:01.493Z,86.66
2023-03-31T08:08:29.450Z,86.78
2023-03-31T08:10:57.040Z,86.19
2023-03-31T08:13:24.748Z,86.19
2023-03-31T08:15:52.554Z,85.23
2023-03-31T08:18:20.447Z,84.73
2023-03-31T08:20:49.772Z,83.83
2023-03-31T08:23:18.967Z,83.97
2023-03-31T08:25:47.246Z,83.00
2023-03-31T08:28:15.255Z,83.99
2023-03-31T08:30:43.126Z,88.01
2023-03-31T08:33:12.346Z,89.90
2023-03-31T08:35:40.056Z,90.80
2023-03-31T08:38:07.816Z,90.73
2023-03-31T08:40:37.024Z,89.29
2023-03-31T08:43:09.161Z,88.76
2023-03-31T08:45:40.634Z,88.94
2023-03-31T08:48:16.925Z,87.44
2023-03-31T08:50:49.115Z,85.86
2023-03-31T08:53:24.760Z,86.20
2023-03-31T08:55:55.394Z,83.98
2023-03-31T08:58:35.972Z,83.57
2023-03-31T09:01:09.876Z,82.93
2023-03-31T09:03:48.099Z,80.16
2023-03-31T09:06:22.480Z,76.76
2023-03-31T09:08:50.288Z,79.81
2023-03-31T09:11:29.021Z,80.04
2023-03-31T09:14:11.235Z,78.41
2023-03-31T09:16:44.325Z,79.08
2023-03-31T09:19:18.431Z,78.62
2023-03-31T09:21:50.145Z,77.95
2023-03-31T09:24:21.124Z,78.88
2023-03-31T09:26:53.923Z,77.94
2023-03-31T09:29:27.142Z,77.05
2023-03-31T09:31:56.130Z,76.66
2023-03-31T09:34:28.096Z,75.11
2023-03-31T09:36:55.655Z,74.18
2023-03-31T09:39:23.478Z,73.25
2023-03-31T09:41:54.004Z,73.90
2023-03-31T09:44:29.205Z,71.69
2023-03-31T09:46:57.575Z,71.36
2023-03-31T09:49:29.695Z,72.27
2023-03-31T09:52:05.218Z,72.13
2023-03-31T09:54:38.281Z,71.50
2023-03-31T09:57:15.791Z,70.62
2023-03-31T09:59:44.216Z,70.45
2023-03-31T10:02:29.731Z,69.53
2023-03-31T10:04:57.592Z,70.45
2023-03-31T10:07:26.275Z,70.10
2023-03-31T10:09:56.489Z,68.90
2023-03-31T10:12:28.949Z,69.73
2023-03-31T10:15:13.026Z,66.37
2023-03-31T10:17:54.829Z,67.88
2023-03-31T10:20:33.469Z,68.46
2023-03-31T10:23:08.230Z,68.57
2023-03-31T10:25:36.677Z,66.11
2023-03-31T10:28:05.648Z,66.56
2023-03-31T10:30:38.145Z,68.07
2023-03-31T10:33:22.838Z,65.04
2023-03-31T10:35:55.576Z,67.57
2023-03-31T10:38:27.421Z,67.05
2023-03-31T10:40:57.550Z,67.38
2023-03-31T10:43:30.097Z,65.88
2023-03-31T10:46:00.029Z,66.41
2023-03-31T10:48:29.744Z,64.84
2023-03-31T10:51:01.606Z,66.90
2023-03-31T10:53:29.196Z,67.66
2023-03-31T10:56:07.932Z,71.10
2023-03-31T10:59:04.560Z,75.18
2023-03-31T11:01:45.494Z,71.09
2023-03-31T11:04:45.673Z,72.16
2023-03-31T11:07:29.164Z,75.46
2023-03-31T11:10:11.650Z,71.61
2023-03-31T11:12:44.964Z,73.43
2023-03-31T11:15:23.952Z,71.75
2023-03-31T11:18:13.224Z,68.67
2023-03-31T11:20:51.924Z,69.37
2023-03-31T11:23:28.145Z,71.38
2023-03-31T11:26:03.164Z,70.77
2023-03-31T11:28:49.685Z,69.69
2023-03-31T11:31:29.249Z,67.89
2023-03-31T11:34:19.171Z,68.99
2023-03-31T11:37:04.299Z,65.26
2023-03-31T11:39:44.431Z,63.10
2023-03-31T11:42:18.347Z,65.47
2023-03-31T11:44:52.966Z,66.65
2023-03-31T11:47:26.195Z,66.87
2023-03-31T11:49:59.033Z,66.54
2023-03-31T11:52:30.733Z,66.12
2023-03-31T11:55:03.300Z,65.81
2023-03-31T11:57:34.409Z,67.65
2023-03-31T12:00:11.301Z,65.98
2023-03-31T12:02:50.237Z,65.44
2023-03-31T12:05:19.675Z,66.26
2023-03-31T12:07:52.161Z,67.99
2023-03-31T12:10:22.141Z,63.66
2023-03-31T12:12:55.604Z,63.92
2023-03-31T12:15:25.891Z,66.04
2023-03-31T12:18:01.304Z,64.61
2023-03-31T12:20:33.267Z,65.91
2023-03-31T12:23:03.595Z,66.53
2023-03-31T12:25:43.744Z,67.10
2023-03-31T12:28:12.186Z,66.79
2023-03-31T12:30:43.222Z,69.60
2023-03-31T12:33:20.341Z,70.58
2023-03-31T12:36:05.592Z,69.73
2023-03-31T12:38:52.295Z,69.63
2023-03-31T12:41:27.481Z,69.09
2023-03-31T12:44:09.622Z,69.43
2023-03-31T12:47:05.502Z,70.96
2023-03-31T12:49:45.304Z,69.84
2023-03-31T12:52:19.778Z,71.59
2023-03-31T12:55:09.553Z,74.08
2023-03-31T12:57:37.677Z,80.02
2023-03-31T13:00:21.037Z,78.90
2023-03-31T13:02:49.504Z,77.37
2023-03-31T13:05:48.149Z,77.25
2023-03-31T13:08:49.798Z,75.52
2023-03-31T13:11:18.667Z,78.00
2023-03-31T13:14:00.424Z,83.08
2023-03-31T13:16:29.305Z,86.38
2023-03-31T13:18:57.636Z,85.75
2023-03-31T13:21:27.593Z,88.03
2023-03-31T13:24:00.991Z,89.15
2023-03-31T13:26:50.866Z,90.55
2023-03-31T13:29:23.188Z,89.56
2023-03-31T13:32:22.717Z,90.14
2023-03-31T13:35:00.352Z,89.96
2023-03-31T13:38:04.289Z,90.09
2023-03-31T13:40:47.824Z,88.89
2023-03-31T13:43:33.360Z,87.69
2023-03-31T13:46:18.119Z,88.56
2023-03-31T13:48:55.804Z,86.81
2023-03-31T13:51:30.948Z,86.88
2023-03-31T13:54:43.553Z,85.26
2023-03-31T13:57:32.682Z,85.94
2023-03-31T14:00:19.783Z,84.19
2023-03-31T14:03:08.646Z,81.96
2023-03-31T14:05:39.748Z,79.66
2023-03-31T14:08:12.189Z,80.47
2023-03-31T14:10:42.126Z,79.53
2023-03-31T14:13:13.524Z,78.51
2023-03-31T14:15:44.846Z,78.70
2023-03-31T14:18:18.042Z,81.09
2023-03-31T14:20:53.483Z,86.34
2023-03-31T14:23:31.513Z,88.59
2023-03-31T14:26:06.818Z,88.42
2023-03-31T14:28:58.278Z,89.17
2023-03-31T14:31:35.216Z,87.97
2023-03-31T14:34:37.357Z,86.55
2023-03-31T14:37:08.398Z,83.12
2023-03-31T14:39:38.667Z,81.91
2023-03-31T14:42:12.728Z,79.44
2023-03-31T14:44:46.239Z,77.09
2023-03-31T14:47:16.463Z,76.28
2023-03-31T14:49:44.224Z,70.84
2023-03-31T14:52:18.551Z,70.46
2023-03-31T14:54:47.603Z,69.54
2023-03-31T14:57:20.518Z,69.61
2023-03-31T14:59:52.226Z,71.86
2023-03-31T15:02:25.112Z,70.82
2023-03-31T15:04:53.071Z,71.59
2023-03-31T15:07:20.972Z,72.90
2023-03-31T15:09:51.786Z,73.46
2023-03-31T15:12:23.582Z,73.18
2023-03-31T15:14:55.632Z,74.63
2023-03-31T15:17:25.843Z,75.14
2023-03-31T15:19:56.012Z,74.37
2023-03-31T15:22:26.560Z,76.54
2023-03-31T15:24:54.651Z,75.01
2023-03-31T15:27:37.115Z,75.20
2023-03-31T15:30:08.912Z,76.19
2023-03-31T15:32:38.987Z,76.40
2023-03-31T15:37:58.760Z,76.89
2023-03-31T15:40:28.604Z,78.08
2023-03-31T15:43:13.448Z,78.52
2023-03-31T15:45:52.078Z,80.28
2023-03-31T15:48:23.559Z,78.65
2023-03-31T15:50:53.142Z,78.90
2023-03-31T15:53:35.867Z,78.51
2023-03-31T15:56:04.074Z,78.37
2023-03-31T15:58:54.835Z,79.97
2023-03-31T16:01:29.332Z,79.53
2023-03-31T16:03:58.004Z,79.64
2023-03-31T16:06:36.055Z,80.66
2023-03-31T16:09:08.209Z,82.04
2023-03-31T16:11:40.237Z,86.02
2023-03-31T16:14:15.185Z,89.92
2023-03-31T16:16:50.493Z,92.37
2023-03-31T16:19:20.076Z,96.68
2023-03-31T16:21:52.593Z,96.65
2023-03-31T16:24:22.139Z,97.47
2023-03-31T16:26:49.957Z,94.76
2023-03-31T16:29:22.150Z,94.37
2023-03-31T16:31:51.181Z,95.15
2023-03-31T16:34:18.965Z,94.12
2023-03-31T16:36:47.480Z,93.09
2023-03-31T16:39:15.406Z,93.51
2023-03-31T16:41:43.062Z,93.50
2023-03-31T16:44:11.034Z,92.30
2023-03-31T16:46:38.610Z,91.92
2023-03-31T16:49:07.667Z,90.10
2023-03-31T16:51:35.309Z,89.69
2023-03-31T16:54:02.968Z,89.80
2023-03-31T16:56:30.578Z,90.26
2023-03-31T16:58:58.281Z,89.32
2023-03-31T17:01:26.081Z,90.09
2023-03-31T17:03:54.032Z,88.61
2023-03-31T17:06:23.382Z,90.36
2023-03-31T17:08:50.984Z,89.15
2023-03-31T17:11:18.593Z,89.70
2023-03-31T17:13:46.514Z,90.98
2023-03-31T17:16:21.991Z,90.94
2023-03-31T17:18:54.737Z,90.98
2023-03-31T17:21:24.300Z,88.98
2023-03-31T17:23:51.862Z,88.56
2023-03-31T17:26:19.580Z,88.82
2023-03-31T17:28:47.173Z,90.16
2023-03-31T17:31:16.746Z,89.56
2023-03-31T17:33:44.647Z,89.70
2023-03-31T17:36:12.873Z,90.12
2023-03-31T17:38:42.058Z,90.71
2023-03-31T17:41:11.457Z,90.78
2023-03-31T17:43:39.332Z,91.73
2023-03-31T17:46:11.090Z,92.22
2023-03-31T17:48:41.920Z,91.23
2023-03-31T17:51:13.691Z,92.25
2023-03-31T17:53:43.166Z,92.72
2023-03-31T17:56:11.026Z,91.23
2023-03-31T17:58:38.624Z,90.59
2023-03-31T18:01:07.736Z,90.37
2023-03-31T18:03:36.287Z,90.73
2023-03-31T18:06:06.458Z,90.82
2023-03-31T18:08:34.601Z,91.63
2023-03-31T18:11:05.240Z,90.52
2023-03-31T18:13:33.037Z,91.42
2023-03-31T18:16:00.757Z,90.76
2023-03-31T18:18:29.024Z,90.42
2023-03-31T18:20:56.790Z,90.02
2023-03-31T18:23:24.747Z,89.96
2023-03-31T18:25:52.651Z,88.53
2023-03-31T18:28:21.756Z,88.66
2023-03-31T18:30:49.343Z,88.29
2023-03-31T18:33:17.649Z,88.03
2023-03-31T18:35:46.723Z,87.03
2023-03-31T18:38:14.731Z,85.70
2023-03-31T18:40:48.788Z,84.92
2023-03-31T18:43:18.272Z,84.32
2023-03-31T18:45:51.190Z,84.27
2023-03-31T18:48:21.642Z,84.40
2023-03-31T18:50:51.261Z,84.32
2023-03-31T18:53:19.483Z,83.96
2023-03-31T18:55:50.220Z,84.03
2023-03-31T18:58:18.019Z,83.80
2023-03-31T19:00:46.504Z,84.59
2023-03-31T19:03:16.059Z,83.44
2023-03-31T19:05:43.917Z,82.67
2023-03-31T19:08:11.553Z,82.77
2023-03-31T19:10:39.262Z,82.93
2023-03-31T19:13:07.668Z,83.01
2023-03-31T19:15:37.203Z,82.19
2023-03-31T19:18:05.201Z,82.25
2023-03-31T19:20:34.403Z,81.99
2023-03-31T19:23:02.155Z,81.91
2023-03-31T19:25:30.090Z,81.83
2023-03-31T19:27:58.016Z,82.01
2023-03-31T19:30:25.915Z,82.91
2023-03-31T19:32:53.830Z,81.82
2023-03-31T19:35:22.645Z,82.03
2023-03-31T19:37:53.306Z,82.84
2023-03-31T19:40:21.079Z,81.67
2023-03-31T19:42:48.893Z,81.16
2023-03-31T19:45:16.477Z,81.21
2023-03-31T19:47:44.256Z,79.94
2023-03-31T19:50:13.082Z,79.34
2023-03-31T19:52:41.429Z,80.57
2023-03-31T19:55:11.477Z,79.12
2023-03-31T19:57:39.078Z,79.27
2023-03-31T20:00:07.983Z,78.95
2023-03-31T20:02:36.119Z,78.39
2023-03-31T20:05:03.936Z,78.60
2023-03-31T20:07:31.946Z,78.11
2023-03-31T20:09:59.524Z,78.75
2023-03-31T20:12:28.585Z,78.35
2023-03-31T20:14:56.157Z,77.97
2023-03-31T20:17:23.912Z,78.22
2023-03-31T20:19:51.484Z,77.40
2023-03-31T20:22:19.474Z,78.07
2023-03-31T20:24:47.172Z,77.64
2023-03-31T20:27:14.845Z,76.31
2023-03-31T20:29:43.930Z,76.86
2023-03-31T20:32:11.794Z,76.88
2023-03-31T20:34:39.413Z,77.11
2023-03-31T20:37:07.717Z,76.67
2023-03-31T20:39:35.866Z,77.29
2023-03-31T20:42:03.647Z,76.33
2023-03-31T20:44:32.350Z,77.91
2023-03-31T20:47:01.758Z,77.80
2023-03-31T20:49:29.381Z,78.08
2023-03-31T20:51:57.013Z,77.80
2023-03-31T20:54:24.615Z,78.39
2023-03-31T20:56:52.501Z,78.96
2023-03-31T20:59:21.513Z,78.72
2023-03-31T21:01:49.819Z,78.26
2023-03-31T21:04:18.896Z,78.75
2023-03-31T21:06:48.387Z,78.76
2023-03-31T21:09:17.678Z,78.16
2023-03-31T21:11:45.911Z,79.29
2023-03-31T21:14:15.640Z,77.47
2023-03-31T21:16:43.689Z,78.30
2023-03-31T21:19:11.405Z,77.96
2023-03-31T21:21:41.177Z,78.19
2023-03-31T21:24:10.069Z,78.46
2023-03-31T21:26:37.630Z,77.99
2023-03-31T21:29:05.396Z,79.25
2023-03-31T21:31:33.150Z,79.37
2023-03-31T21:34:02.620Z,79.01
2023-03-31T21:36:30.683Z,78.77
2023-03-31T21:39:00.973Z,79.21
2023-03-31T21:41:30.663Z,79.45
2023-03-31T21:44:00.501Z,79.20
2023-03-31T21:46:30.758Z,80.11
2023-03-31T21:48:58.701Z,80.48
2023-03-31T21:51:27.034Z,79.36
2023-03-31T21:53:56.061Z,81.03
2023-03-31T21:56:27.599Z,81.31
2023-03-31T21:58:55.656Z,81.47
2023-03-31T22:01:23.590Z,80.53
2023-03-31T22:03:52.014Z,81.56
2023-03-31T22:06:19.883Z,82.05
2023-03-31T22:08:47.541Z,82.65
2023-03-31T22:11:15.911Z,84.43
2023-03-31T22:13:45.258Z,83.93
2023-03-31T22:16:16.805Z,84.74
2023-03-31T22:18:44.935Z,85.63
2023-03-31T22:21:17.300Z,85.67
2023-03-31T22:23:45.596Z,85.71
2023-03-31T22:26:13.392Z,86.44
2023-03-31T22:28:41.141Z,86.79
2023-03-31T22:31:10.139Z,86.97
2023-03-31T22:33:38.024Z,86.77
2023-03-31T22:36:06.215Z,86.82
2023-03-31T22:38:34.026Z,86.90
2023-03-31T22:41:01.783Z,86.16
2023-03-31T22:43:29.753Z,86.03
2023-03-31T22:45:57.361Z,86.27
2023-03-31T22:48:26.516Z,86.16
2023-03-31T22:50:54.116Z,86.34
2023-03-31T22:53:22.392Z,86.51
2023-03-31T22:55:53.953Z,86.69
2023-03-31T22:58:22.647Z,87.21
2023-03-31T23:00:57.005Z,86.74
2023-03-31T23:03:27.155Z,86.42
2023-03-31T23:05:54.847Z,86.87
2023-03-31T23:08:22.809Z,86.78
2023-03-31T23:10:57.633Z,87.06
2023-03-31T23:13:26.660Z,86.66
2023-03-31T23:15:54.733Z,86.49
2023-03-31T23:18:23.038Z,86.72
2023-03-31T23:20:52.372Z,87.05
2023-03-31T23:23:20.039Z,87.11
2023-03-31T23:25:47.692Z,87.10
2023-03-31T23:28:16.713Z,87.07
2023-03-31T23:30:52.996Z,86.69
2023-03-31T23:33:20.803Z,87.28
2023-03-31T23:35:48.945Z,86.87
2023-03-31T23:38:18.120Z,87.28
2023-03-31T23:40:48.524Z,86.93
2023-03-31T23:43:16.885Z,86.54
2023-03-31T23:45:44.540Z,86.40
2023-03-31T23:48:12.124Z,85.97
2023-03-31T23:50:39.827Z,85.99
2023-03-31T23:53:07.923Z,86.06
2023-03-31T23:55:38.121Z,86.18
2023-03-31T23:58:06.515Z,86.26
